sensor_id;sensor_type;location;lat;lon;timestamp;P1;durP1;ratioP1;P2;durP2;ratioP2
13331;SDS011;6735;51.456;12.626;2022-11-04T00:00:16;19.27;;;17.20;;
13331;SDS011;6735;51.456;12.626;2022-11-04T00:02:41;22.27;;;18.50;;
13331;SDS011;6735;51.456;12.626;2022-11-04T00:05:07;20.40;;;17.97;;
13331;SDS011;6735;51.456;12.626;2022-11-04T00:07:32;23.67;;;17.77;;
13331;SDS011;6735;51.456;12.626;2022-11-04T00:10:16;22.33;;;17.90;;
13331;SDS011;6735;51.456;12.626;2022-11-04T00:13:02;22.17;;;17.03;;
13331;SDS011;6735;51.456;12.626;2022-11-04T00:15:27;18.97;;;16.93;;
13331;SDS011;6735;51.456;12.626;2022-11-04T00:18:11;20.53;;;17.40;;
13331;SDS011;6735;51.456;12.626;2022-11-04T00:20:37;20.57;;;18.37;;
13331;SDS011;6735;51.456;12.626;2022-11-04T00:23:21;23.27;;;17.63;;
13331;SDS011;6735;51.456;12.626;2022-11-04T00:26:07;19.57;;;17.23;;
13331;SDS011;6735;51.456;12.626;2022-11-04T00:28:51;20.70;;;18.50;;
13331;SDS011;6735;51.456;12.626;2022-11-04T00:31:18;19.60;;;17.10;;
13331;SDS011;6735;51.456;12.626;2022-11-04T00:34:18;19.30;;;17.20;;
13331;SDS011;6735;51.456;12.626;2022-11-04T00:36:44;20.87;;;17.93;;
13331;SDS011;6735;51.456;12.626;2022-11-04T00:39:09;21.47;;;18.73;;
13331;SDS011;6735;51.456;12.626;2022-11-04T00:41:35;21.33;;;18.73;;
13331;SDS011;6735;51.456;12.626;2022-11-04T00:44:01;21.87;;;17.50;;
13331;SDS011;6735;51.456;12.626;2022-11-04T00:46:29;20.50;;;18.30;;
13331;SDS011;6735;51.456;12.626;2022-11-04T00:48:55;21.00;;;18.17;;
13331;SDS011;6735;51.456;12.626;2022-11-04T00:51:21;20.67;;;18.53;;
13331;SDS011;6735;51.456;12.626;2022-11-04T00:53:47;21.27;;;18.10;;
13331;SDS011;6735;51.456;12.626;2022-11-04T00:56:13;21.30;;;18.17;;
13331;SDS011;6735;51.456;12.626;2022-11-04T00:58:39;20.90;;;17.93;;
13331;SDS011;6735;51.456;12.626;2022-11-04T01:01:14;19.83;;;17.77;;
13331;SDS011;6735;51.456;12.626;2022-11-04T01:03:43;22.53;;;17.83;;
13331;SDS011;6735;51.456;12.626;2022-11-04T01:06:10;20.40;;;17.80;;
13331;SDS011;6735;51.456;12.626;2022-11-04T01:08:35;21.53;;;17.47;;
13331;SDS011;6735;51.456;12.626;2022-11-04T01:11:02;24.13;;;18.37;;
13331;SDS011;6735;51.456;12.626;2022-11-04T01:13:28;22.03;;;17.40;;
13331;SDS011;6735;51.456;12.626;2022-11-04T01:15:56;19.73;;;17.67;;
13331;SDS011;6735;51.456;12.626;2022-11-04T01:18:22;19.50;;;17.30;;
13331;SDS011;6735;51.456;12.626;2022-11-04T01:20:48;20.87;;;17.67;;
13331;SDS011;6735;51.456;12.626;2022-11-04T01:23:13;19.30;;;17.20;;
13331;SDS011;6735;51.456;12.626;2022-11-04T01:25:39;20.53;;;17.23;;
13331;SDS011;6735;51.456;12.626;2022-11-04T01:28:07;22.23;;;17.63;;
13331;SDS011;6735;51.456;12.626;2022-11-04T01:30:33;20.70;;;17.50;;
13331;SDS011;6735;51.456;12.626;2022-11-04T01:32:58;21.90;;;17.83;;
13331;SDS011;6735;51.456;12.626;2022-11-04T01:35:24;19.67;;;17.17;;
13331;SDS011;6735;51.456;12.626;2022-11-04T01:37:49;20.53;;;17.53;;
13331;SDS011;6735;51.456;12.626;2022-11-04T01:40:15;21.17;;;17.17;;
13331;SDS011;6735;51.456;12.626;2022-11-04T01:42:40;20.63;;;17.20;;
13331;SDS011;6735;51.456;12.626;2022-11-04T01:45:11;19.00;;;17.10;;
13331;SDS011;6735;51.456;12.626;2022-11-04T01:47:45;20.43;;;16.70;;
13331;SDS011;6735;51.456;12.626;2022-11-04T01:50:23;19.80;;;16.60;;
13331;SDS011;6735;51.456;12.626;2022-11-04T01:52:53;19.57;;;17.53;;
13331;SDS011;6735;51.456;12.626;2022-11-04T01:55:25;20.47;;;17.97;;
13331;SDS011;6735;51.456;12.626;2022-11-04T01:57:55;21.83;;;18.53;;
13331;SDS011;6735;51.456;12.626;2022-11-04T02:00:28;21.47;;;18.03;;
13331;SDS011;6735;51.456;12.626;2022-11-04T02:03:01;20.37;;;17.73;;
13331;SDS011;6735;51.456;12.626;2022-11-04T02:05:31;20.30;;;17.77;;
13331;SDS011;6735;51.456;12.626;2022-11-04T02:07:57;19.47;;;17.47;;
13331;SDS011;6735;51.456;12.626;2022-11-04T02:10:27;20.27;;;17.27;;
13331;SDS011;6735;51.456;12.626;2022-11-04T02:12:54;20.73;;;17.80;;
13331;SDS011;6735;51.456;12.626;2022-11-04T02:15:24;22.47;;;18.40;;
13331;SDS011;6735;51.456;12.626;2022-11-04T02:18:09;21.20;;;17.70;;
13331;SDS011;6735;51.456;12.626;2022-11-04T02:24:17;21.50;;;18.10;;
13331;SDS011;6735;51.456;12.626;2022-11-04T02:27:17;20.93;;;17.93;;
13331;SDS011;6735;51.456;12.626;2022-11-04T02:30:04;20.97;;;17.63;;
13331;SDS011;6735;51.456;12.626;2022-11-04T02:32:41;22.30;;;18.37;;
13331;SDS011;6735;51.456;12.626;2022-11-04T02:35:57;30.97;;;17.27;;
13331;SDS011;6735;51.456;12.626;2022-11-04T02:38:49;21.67;;;17.73;;
13331;SDS011;6735;51.456;12.626;2022-11-04T02:41:25;19.57;;;17.20;;
13331;SDS011;6735;51.456;12.626;2022-11-04T02:44:10;19.63;;;17.53;;
13331;SDS011;6735;51.456;12.626;2022-11-04T02:46:59;22.53;;;18.13;;
13331;SDS011;6735;51.456;12.626;2022-11-04T02:49:38;20.93;;;17.43;;
13331;SDS011;6735;51.456;12.626;2022-11-04T02:52:10;22.23;;;17.57;;
13331;SDS011;6735;51.456;12.626;2022-11-04T02:54:44;21.60;;;18.20;;
13331;SDS011;6735;51.456;12.626;2022-11-04T02:57:19;21.17;;;18.03;;
13331;SDS011;6735;51.456;12.626;2022-11-04T02:59:56;19.97;;;17.53;;
13331;SDS011;6735;51.456;12.626;2022-11-04T03:02:32;21.83;;;17.47;;
13331;SDS011;6735;51.456;12.626;2022-11-04T03:05:03;18.77;;;16.77;;
13331;SDS011;6735;51.456;12.626;2022-11-04T03:07:33;21.40;;;16.70;;
13331;SDS011;6735;51.456;12.626;2022-11-04T03:10:04;18.07;;;16.17;;
13331;SDS011;6735;51.456;12.626;2022-11-04T03:12:47;19.60;;;14.70;;
13331;SDS011;6735;51.456;12.626;2022-11-04T03:15:19;17.87;;;14.60;;
13331;SDS011;6735;51.456;12.626;2022-11-04T03:17:59;17.60;;;14.93;;
13331;SDS011;6735;51.456;12.626;2022-11-04T03:20:40;17.00;;;13.90;;
13331;SDS011;6735;51.456;12.626;2022-11-04T03:23:07;15.57;;;13.37;;
13331;SDS011;6735;51.456;12.626;2022-11-04T03:25:36;16.00;;;12.97;;
13331;SDS011;6735;51.456;12.626;2022-11-04T03:28:26;16.23;;;13.33;;
13331;SDS011;6735;51.456;12.626;2022-11-04T03:31:03;17.07;;;13.33;;
13331;SDS011;6735;51.456;12.626;2022-11-04T03:33:40;17.10;;;12.73;;
13331;SDS011;6735;51.456;12.626;2022-11-04T03:36:12;19.77;;;13.43;;
13331;SDS011;6735;51.456;12.626;2022-11-04T03:38:38;19.30;;;13.30;;
13331;SDS011;6735;51.456;12.626;2022-11-04T03:41:06;16.63;;;13.53;;
13331;SDS011;6735;51.456;12.626;2022-11-04T03:43:39;17.97;;;13.60;;
13331;SDS011;6735;51.456;12.626;2022-11-04T03:46:05;14.10;;;12.70;;
13331;SDS011;6735;51.456;12.626;2022-11-04T03:48:31;19.17;;;13.90;;
13331;SDS011;6735;51.456;12.626;2022-11-04T03:50:57;18.50;;;13.47;;
13331;SDS011;6735;51.456;12.626;2022-11-04T03:53:22;17.30;;;13.00;;
13331;SDS011;6735;51.456;12.626;2022-11-04T03:56:01;15.63;;;12.57;;
13331;SDS011;6735;51.456;12.626;2022-11-04T03:58:49;18.30;;;12.93;;
13331;SDS011;6735;51.456;12.626;2022-11-04T04:06:51;20.47;;;13.07;;
13331;SDS011;6735;51.456;12.626;2022-11-04T04:09:26;15.07;;;13.47;;
13331;SDS011;6735;51.456;12.626;2022-11-04T04:12:06;19.20;;;13.50;;
13331;SDS011;6735;51.456;12.626;2022-11-04T04:14:42;18.33;;;13.97;;
13331;SDS011;6735;51.456;12.626;2022-11-04T04:17:14;19.67;;;15.20;;
13331;SDS011;6735;51.456;12.626;2022-11-04T04:19:52;19.37;;;13.50;;
13331;SDS011;6735;51.456;12.626;2022-11-04T04:22:27;15.63;;;13.83;;
13331;SDS011;6735;51.456;12.626;2022-11-04T04:24:57;18.80;;;14.50;;
13331;SDS011;6735;51.456;12.626;2022-11-04T04:27:43;17.77;;;14.20;;
13331;SDS011;6735;51.456;12.626;2022-11-04T04:30:12;15.87;;;14.17;;
13331;SDS011;6735;51.456;12.626;2022-11-04T04:32:58;17.37;;;14.47;;
13331;SDS011;6735;51.456;12.626;2022-11-04T04:35:45;16.97;;;13.73;;
13331;SDS011;6735;51.456;12.626;2022-11-04T04:38:24;18.53;;;13.63;;
13331;SDS011;6735;51.456;12.626;2022-11-04T04:43:59;15.30;;;13.70;;
13331;SDS011;6735;51.456;12.626;2022-11-04T04:46:43;15.20;;;13.33;;
13331;SDS011;6735;51.456;12.626;2022-11-04T04:49:11;17.07;;;13.63;;
13331;SDS011;6735;51.456;12.626;2022-11-04T04:51:40;17.33;;;13.50;;
13331;SDS011;6735;51.456;12.626;2022-11-04T04:54:09;17.87;;;14.17;;
13331;SDS011;6735;51.456;12.626;2022-11-04T04:56:34;16.03;;;14.40;;
13331;SDS011;6735;51.456;12.626;2022-11-04T04:59:00;19.37;;;15.07;;
13331;SDS011;6735;51.456;12.626;2022-11-04T05:01:25;16.60;;;14.50;;
13331;SDS011;6735;51.456;12.626;2022-11-04T05:03:51;16.87;;;14.90;;
13331;SDS011;6735;51.456;12.626;2022-11-04T05:06:16;16.03;;;13.87;;
13331;SDS011;6735;51.456;12.626;2022-11-04T05:08:42;17.20;;;14.37;;
13331;SDS011;6735;51.456;12.626;2022-11-04T05:11:07;16.17;;;13.63;;
13331;SDS011;6735;51.456;12.626;2022-11-04T05:13:33;17.37;;;14.37;;
13331;SDS011;6735;51.456;12.626;2022-11-04T05:16:03;16.60;;;14.17;;
13331;SDS011;6735;51.456;12.626;2022-11-04T05:18:30;15.70;;;13.97;;
13331;SDS011;6735;51.456;12.626;2022-11-04T05:20:55;17.13;;;14.20;;
13331;SDS011;6735;51.456;12.626;2022-11-04T05:23:21;17.10;;;14.27;;
13331;SDS011;6735;51.456;12.626;2022-11-04T05:25:46;16.00;;;14.10;;
13331;SDS011;6735;51.456;12.626;2022-11-04T05:28:12;16.40;;;14.03;;
13331;SDS011;6735;51.456;12.626;2022-11-04T05:30:38;15.97;;;13.53;;
13331;SDS011;6735;51.456;12.626;2022-11-04T05:33:03;15.37;;;13.33;;
13331;SDS011;6735;51.456;12.626;2022-11-04T05:35:29;18.33;;;14.10;;
13331;SDS011;6735;51.456;12.626;2022-11-04T05:37:55;16.57;;;13.83;;
13331;SDS011;6735;51.456;12.626;2022-11-04T05:40:21;15.83;;;14.13;;
13331;SDS011;6735;51.456;12.626;2022-11-04T05:42:47;19.07;;;14.00;;
13331;SDS011;6735;51.456;12.626;2022-11-04T05:45:12;17.30;;;14.50;;
13331;SDS011;6735;51.456;12.626;2022-11-04T05:47:38;17.50;;;13.47;;
13331;SDS011;6735;51.456;12.626;2022-11-04T05:50:03;16.77;;;14.63;;
13331;SDS011;6735;51.456;12.626;2022-11-04T05:52:29;19.97;;;14.30;;
13331;SDS011;6735;51.456;12.626;2022-11-04T05:54:55;15.37;;;13.77;;
13331;SDS011;6735;51.456;12.626;2022-11-04T05:57:20;20.37;;;15.40;;
13331;SDS011;6735;51.456;12.626;2022-11-04T05:59:46;16.80;;;13.93;;
13331;SDS011;6735;51.456;12.626;2022-11-04T06:02:11;17.40;;;14.33;;
13331;SDS011;6735;51.456;12.626;2022-11-04T06:04:37;21.87;;;14.23;;
13331;SDS011;6735;51.456;12.626;2022-11-04T06:07:02;19.63;;;15.30;;
13331;SDS011;6735;51.456;12.626;2022-11-04T06:09:28;18.27;;;13.83;;
13331;SDS011;6735;51.456;12.626;2022-11-04T06:12:06;19.27;;;14.37;;
13331;SDS011;6735;51.456;12.626;2022-11-04T06:14:34;20.87;;;14.30;;
13331;SDS011;6735;51.456;12.626;2022-11-04T06:16:59;18.40;;;14.97;;
13331;SDS011;6735;51.456;12.626;2022-11-04T06:19:25;18.73;;;15.07;;
13331;SDS011;6735;51.456;12.626;2022-11-04T06:21:51;19.97;;;15.13;;
13331;SDS011;6735;51.456;12.626;2022-11-04T06:24:16;18.60;;;14.30;;
13331;SDS011;6735;51.456;12.626;2022-11-04T06:26:42;16.60;;;14.87;;
13331;SDS011;6735;51.456;12.626;2022-11-04T06:29:07;17.20;;;14.87;;
13331;SDS011;6735;51.456;12.626;2022-11-04T06:31:33;20.63;;;15.40;;
13331;SDS011;6735;51.456;12.626;2022-11-04T06:33:59;20.37;;;14.83;;
13331;SDS011;6735;51.456;12.626;2022-11-04T06:36:24;23.73;;;15.73;;
13331;SDS011;6735;51.456;12.626;2022-11-04T06:38:50;17.93;;;15.07;;
13331;SDS011;6735;51.456;12.626;2022-11-04T06:41:16;24.20;;;16.50;;
13331;SDS011;6735;51.456;12.626;2022-11-04T06:43:42;29.70;;;16.80;;
13331;SDS011;6735;51.456;12.626;2022-11-04T06:46:27;17.80;;;15.07;;
13331;SDS011;6735;51.456;12.626;2022-11-04T06:48:55;20.50;;;14.80;;
13331;SDS011;6735;51.456;12.626;2022-11-04T06:51:21;17.70;;;14.60;;
13331;SDS011;6735;51.456;12.626;2022-11-04T06:53:47;20.67;;;15.63;;
13331;SDS011;6735;51.456;12.626;2022-11-04T06:56:13;19.00;;;14.47;;
13331;SDS011;6735;51.456;12.626;2022-11-04T06:58:39;15.80;;;14.20;;
13331;SDS011;6735;51.456;12.626;2022-11-04T07:01:05;16.37;;;14.00;;
13331;SDS011;6735;51.456;12.626;2022-11-04T07:03:30;19.57;;;14.67;;
13331;SDS011;6735;51.456;12.626;2022-11-04T07:05:56;16.10;;;14.03;;
13331;SDS011;6735;51.456;12.626;2022-11-04T07:08:21;16.13;;;13.60;;
13331;SDS011;6735;51.456;12.626;2022-11-04T07:10:47;18.60;;;14.30;;
13331;SDS011;6735;51.456;12.626;2022-11-04T07:13:12;17.13;;;14.53;;
13331;SDS011;6735;51.456;12.626;2022-11-04T07:15:38;17.30;;;14.40;;
13331;SDS011;6735;51.456;12.626;2022-11-04T07:18:04;18.40;;;14.37;;
13331;SDS011;6735;51.456;12.626;2022-11-04T07:20:31;16.67;;;14.90;;
13331;SDS011;6735;51.456;12.626;2022-11-04T07:22:57;17.43;;;14.40;;
13331;SDS011;6735;51.456;12.626;2022-11-04T07:25:23;18.67;;;14.30;;
13331;SDS011;6735;51.456;12.626;2022-11-04T07:27:48;16.00;;;14.30;;
13331;SDS011;6735;51.456;12.626;2022-11-04T07:30:14;16.57;;;14.47;;
13331;SDS011;6735;51.456;12.626;2022-11-04T07:32:40;17.67;;;15.57;;
13331;SDS011;6735;51.456;12.626;2022-11-04T07:35:05;22.67;;;15.80;;
13331;SDS011;6735;51.456;12.626;2022-11-04T07:37:31;17.97;;;15.80;;
13331;SDS011;6735;51.456;12.626;2022-11-04T07:39:57;19.07;;;15.70;;
13331;SDS011;6735;51.456;12.626;2022-11-04T07:42:22;20.97;;;16.40;;
13331;SDS011;6735;51.456;12.626;2022-11-04T07:44:48;20.10;;;15.23;;
13331;SDS011;6735;51.456;12.626;2022-11-04T07:47:13;20.93;;;16.20;;
13331;SDS011;6735;51.456;12.626;2022-11-04T07:49:39;20.23;;;15.80;;
13331;SDS011;6735;51.456;12.626;2022-11-04T07:52:04;21.00;;;16.47;;
13331;SDS011;6735;51.456;12.626;2022-11-04T07:54:30;18.13;;;15.63;;
13331;SDS011;6735;51.456;12.626;2022-11-04T07:56:56;17.57;;;14.87;;
13331;SDS011;6735;51.456;12.626;2022-11-04T07:59:22;16.77;;;14.97;;
13331;SDS011;6735;51.456;12.626;2022-11-04T08:01:48;15.73;;;13.93;;
13331;SDS011;6735;51.456;12.626;2022-11-04T08:04:13;14.37;;;12.87;;
13331;SDS011;6735;51.456;12.626;2022-11-04T08:06:38;15.33;;;13.20;;
13331;SDS011;6735;51.456;12.626;2022-11-04T08:09:04;16.17;;;12.80;;
13331;SDS011;6735;51.456;12.626;2022-11-04T08:11:30;14.00;;;11.77;;
13331;SDS011;6735;51.456;12.626;2022-11-04T08:13:55;13.27;;;11.90;;
13331;SDS011;6735;51.456;12.626;2022-11-04T08:16:21;14.60;;;11.63;;
13331;SDS011;6735;51.456;12.626;2022-11-04T08:18:48;14.00;;;11.07;;
13331;SDS011;6735;51.456;12.626;2022-11-04T08:21:16;13.93;;;11.40;;
13331;SDS011;6735;51.456;12.626;2022-11-04T08:23:42;13.97;;;11.70;;
13331;SDS011;6735;51.456;12.626;2022-11-04T08:26:12;12.03;;;10.83;;
13331;SDS011;6735;51.456;12.626;2022-11-04T08:28:40;12.70;;;11.40;;
13331;SDS011;6735;51.456;12.626;2022-11-04T08:31:12;12.73;;;11.37;;
13331;SDS011;6735;51.456;12.626;2022-11-04T08:33:39;16.10;;;11.00;;
13331;SDS011;6735;51.456;12.626;2022-11-04T08:36:07;13.10;;;11.47;;
13331;SDS011;6735;51.456;12.626;2022-11-04T08:38:35;12.13;;;10.77;;
13331;SDS011;6735;51.456;12.626;2022-11-04T08:41:03;12.40;;;10.73;;
13331;SDS011;6735;51.456;12.626;2022-11-04T08:43:30;11.33;;;10.07;;
13331;SDS011;6735;51.456;12.626;2022-11-04T08:45:56;10.63;;;9.60;;
13331;SDS011;6735;51.456;12.626;2022-11-04T08:48:22;10.90;;;9.73;;
13331;SDS011;6735;51.456;12.626;2022-11-04T08:50:48;10.00;;;9.00;;
13331;SDS011;6735;51.456;12.626;2022-11-04T08:53:15;13.07;;;10.83;;
13331;SDS011;6735;51.456;12.626;2022-11-04T08:55:41;13.37;;;10.60;;
13331;SDS011;6735;51.456;12.626;2022-11-04T08:58:07;11.53;;;10.07;;
13331;SDS011;6735;51.456;12.626;2022-11-04T09:00:32;11.23;;;8.77;;
13331;SDS011;6735;51.456;12.626;2022-11-04T09:02:58;9.60;;;8.70;;
13331;SDS011;6735;51.456;12.626;2022-11-04T09:05:24;9.30;;;7.73;;
13331;SDS011;6735;51.456;12.626;2022-11-04T09:07:50;10.97;;;9.70;;
13331;SDS011;6735;51.456;12.626;2022-11-04T09:10:16;12.50;;;10.17;;
13331;SDS011;6735;51.456;12.626;2022-11-04T09:12:42;9.97;;;8.33;;
13331;SDS011;6735;51.456;12.626;2022-11-04T09:15:08;8.07;;;7.27;;
13331;SDS011;6735;51.456;12.626;2022-11-04T09:17:34;8.67;;;7.27;;
13331;SDS011;6735;51.456;12.626;2022-11-04T09:20:00;8.03;;;6.87;;
13331;SDS011;6735;51.456;12.626;2022-11-04T09:22:26;7.73;;;6.97;;
13331;SDS011;6735;51.456;12.626;2022-11-04T09:24:52;8.63;;;7.27;;
13331;SDS011;6735;51.456;12.626;2022-11-04T09:27:17;7.10;;;6.50;;
13331;SDS011;6735;51.456;12.626;2022-11-04T09:29:43;7.27;;;6.57;;
13331;SDS011;6735;51.456;12.626;2022-11-04T09:32:09;8.43;;;7.63;;
13331;SDS011;6735;51.456;12.626;2022-11-04T09:34:34;6.93;;;6.33;;
13331;SDS011;6735;51.456;12.626;2022-11-04T09:37:00;7.63;;;6.83;;
13331;SDS011;6735;51.456;12.626;2022-11-04T09:39:25;8.47;;;6.60;;
13331;SDS011;6735;51.456;12.626;2022-11-04T09:42:00;7.30;;;6.60;;
13331;SDS011;6735;51.456;12.626;2022-11-04T09:44:57;7.73;;;6.50;;
13331;SDS011;6735;51.456;12.626;2022-11-04T09:47:44;7.37;;;6.70;;
13331;SDS011;6735;51.456;12.626;2022-11-04T09:50:17;8.70;;;6.97;;
13331;SDS011;6735;51.456;12.626;2022-11-04T09:53:00;7.40;;;6.63;;
13331;SDS011;6735;51.456;12.626;2022-11-04T09:58:28;13.73;;;11.60;;
13331;SDS011;6735;51.456;12.626;2022-11-04T10:01:04;10.13;;;9.13;;
13331;SDS011;6735;51.456;12.626;2022-11-04T10:11:16;7.17;;;6.57;;
13331;SDS011;6735;51.456;12.626;2022-11-04T10:14:07;7.40;;;6.70;;
13331;SDS011;6735;51.456;12.626;2022-11-04T10:22:00;7.10;;;6.40;;
13331;SDS011;6735;51.456;12.626;2022-11-04T10:24:34;7.07;;;6.37;;
13331;SDS011;6735;51.456;12.626;2022-11-04T10:27:11;7.43;;;6.73;;
13331;SDS011;6735;51.456;12.626;2022-11-04T10:29:44;8.00;;;7.20;;
13331;SDS011;6735;51.456;12.626;2022-11-04T10:32:47;8.80;;;8.00;;
13331;SDS011;6735;51.456;12.626;2022-11-04T10:35:37;8.03;;;7.20;;
13331;SDS011;6735;51.456;12.626;2022-11-04T10:38:11;9.07;;;8.27;;
13331;SDS011;6735;51.456;12.626;2022-11-04T10:40:53;10.27;;;7.00;;
13331;SDS011;6735;51.456;12.626;2022-11-04T10:43:25;7.27;;;5.70;;
13331;SDS011;6735;51.456;12.626;2022-11-04T10:46:08;6.53;;;6.00;;
13331;SDS011;6735;51.456;12.626;2022-11-04T10:48:42;5.97;;;5.20;;
13331;SDS011;6735;51.456;12.626;2022-11-04T10:51:14;5.70;;;5.23;;
13331;SDS011;6735;51.456;12.626;2022-11-04T10:53:46;6.50;;;5.80;;
13331;SDS011;6735;51.456;12.626;2022-11-04T10:56:16;5.67;;;5.17;;
13331;SDS011;6735;51.456;12.626;2022-11-04T10:58:52;6.23;;;5.73;;
13331;SDS011;6735;51.456;12.626;2022-11-04T11:01:32;5.80;;;5.30;;
13331;SDS011;6735;51.456;12.626;2022-11-04T11:03:59;7.60;;;6.57;;
13331;SDS011;6735;51.456;12.626;2022-11-04T11:06:27;7.10;;;6.50;;
13331;SDS011;6735;51.456;12.626;2022-11-04T11:11:44;7.20;;;6.53;;
13331;SDS011;6735;51.456;12.626;2022-11-04T11:16:57;6.30;;;5.70;;
13331;SDS011;6735;51.456;12.626;2022-11-04T11:19:49;5.70;;;5.20;;
13331;SDS011;6735;51.456;12.626;2022-11-04T11:25:19;6.67;;;5.93;;
13331;SDS011;6735;51.456;12.626;2022-11-04T11:27:50;6.70;;;6.10;;
13331;SDS011;6735;51.456;12.626;2022-11-04T11:30:21;6.97;;;6.37;;
13331;SDS011;6735;51.456;12.626;2022-11-04T11:32:59;7.20;;;6.60;;
13331;SDS011;6735;51.456;12.626;2022-11-04T11:35:34;7.20;;;6.50;;
13331;SDS011;6735;51.456;12.626;2022-11-04T11:38:13;6.83;;;6.13;;
13331;SDS011;6735;51.456;12.626;2022-11-04T11:40:43;6.70;;;6.17;;
13331;SDS011;6735;51.456;12.626;2022-11-04T11:43:26;6.60;;;6.10;;
13331;SDS011;6735;51.456;12.626;2022-11-04T11:45:53;7.13;;;6.43;;
13331;SDS011;6735;51.456;12.626;2022-11-04T11:48:28;6.23;;;5.73;;
13331;SDS011;6735;51.456;12.626;2022-11-04T11:50:55;7.27;;;6.57;;
13331;SDS011;6735;51.456;12.626;2022-11-04T11:53:25;7.10;;;6.40;;
13331;SDS011;6735;51.456;12.626;2022-11-04T11:58:48;7.67;;;6.97;;
13331;SDS011;6735;51.456;12.626;2022-11-04T12:01:27;8.03;;;7.00;;
13331;SDS011;6735;51.456;12.626;2022-11-04T12:04:06;8.47;;;7.37;;
13331;SDS011;6735;51.456;12.626;2022-11-04T12:06:36;7.90;;;7.13;;
13331;SDS011;6735;51.456;12.626;2022-11-04T12:17:57;8.27;;;7.57;;
13331;SDS011;6735;51.456;12.626;2022-11-04T12:20:28;8.47;;;7.57;;
13331;SDS011;6735;51.456;12.626;2022-11-04T12:23:14;8.70;;;7.53;;
13331;SDS011;6735;51.456;12.626;2022-11-04T12:31:58;7.23;;;6.63;;
13331;SDS011;6735;51.456;12.626;2022-11-04T12:34:44;7.47;;;6.77;;
13331;SDS011;6735;51.456;12.626;2022-11-04T12:37:50;7.37;;;6.77;;
13331;SDS011;6735;51.456;12.626;2022-11-04T12:41:27;7.27;;;6.63;;
13331;SDS011;6735;51.456;12.626;2022-11-04T12:43:27;10.20;;;7.77;;
13331;SDS011;6735;51.456;12.626;2022-11-04T12:46:11;8.03;;;7.27;;
13331;SDS011;6735;51.456;12.626;2022-11-04T12:49:03;7.93;;;7.13;;
13331;SDS011;6735;51.456;12.626;2022-11-04T12:54:54;6.07;;;5.57;;
13331;SDS011;6735;51.456;12.626;2022-11-04T12:57:42;5.77;;;5.23;;
13331;SDS011;6735;51.456;12.626;2022-11-04T13:00:19;5.80;;;5.30;;
13331;SDS011;6735;51.456;12.626;2022-11-04T13:05:32;5.90;;;5.40;;
13331;SDS011;6735;51.456;12.626;2022-11-04T13:13:46;6.13;;;5.60;;
13331;SDS011;6735;51.456;12.626;2022-11-04T13:16:23;6.60;;;6.00;;
13331;SDS011;6735;51.456;12.626;2022-11-04T13:18:49;5.80;;;5.20;;
13331;SDS011;6735;51.456;12.626;2022-11-04T13:21:17;6.43;;;5.67;;
13331;SDS011;6735;51.456;12.626;2022-11-04T13:23:55;5.93;;;5.40;;
13331;SDS011;6735;51.456;12.626;2022-11-04T13:26:25;5.10;;;4.57;;
13331;SDS011;6735;51.456;12.626;2022-11-04T13:29:13;6.63;;;5.23;;
13331;SDS011;6735;51.456;12.626;2022-11-04T13:34:25;6.57;;;5.90;;
13331;SDS011;6735;51.456;12.626;2022-11-04T13:37:07;5.97;;;5.47;;
13331;SDS011;6735;51.456;12.626;2022-11-04T13:40:58;7.10;;;5.70;;
13331;SDS011;6735;51.456;12.626;2022-11-04T13:46:02;6.03;;;5.53;;
13331;SDS011;6735;51.456;12.626;2022-11-04T13:48:47;5.37;;;4.87;;
13331;SDS011;6735;51.456;12.626;2022-11-04T13:51:22;5.70;;;4.57;;
13331;SDS011;6735;51.456;12.626;2022-11-04T13:53:57;7.00;;;4.80;;
13331;SDS011;6735;51.456;12.626;2022-11-04T13:56:27;5.10;;;4.70;;
13331;SDS011;6735;51.456;12.626;2022-11-04T13:58:53;8.33;;;5.07;;
13331;SDS011;6735;51.456;12.626;2022-11-04T14:04:02;5.40;;;4.40;;
13331;SDS011;6735;51.456;12.626;2022-11-04T14:14:52;7.63;;;4.80;;
13331;SDS011;6735;51.456;12.626;2022-11-04T14:20:09;5.57;;;5.00;;
13331;SDS011;6735;51.456;12.626;2022-11-04T14:22:47;6.37;;;5.03;;
13331;SDS011;6735;51.456;12.626;2022-11-04T14:30:35;5.63;;;5.00;;
13331;SDS011;6735;51.456;12.626;2022-11-04T14:33:19;7.10;;;5.47;;
13331;SDS011;6735;51.456;12.626;2022-11-04T14:38:57;6.53;;;5.20;;
13331;SDS011;6735;51.456;12.626;2022-11-04T14:44:06;8.13;;;5.97;;
13331;SDS011;6735;51.456;12.626;2022-11-04T14:46:40;7.53;;;6.13;;
13331;SDS011;6735;51.456;12.626;2022-11-04T14:52:02;6.83;;;5.23;;
13331;SDS011;6735;51.456;12.626;2022-11-04T14:54:29;5.60;;;5.10;;
13331;SDS011;6735;51.456;12.626;2022-11-04T14:57:17;5.47;;;4.97;;
13331;SDS011;6735;51.456;12.626;2022-11-04T14:59:45;8.00;;;5.00;;
13331;SDS011;6735;51.456;12.626;2022-11-04T15:02:12;5.50;;;4.90;;
13331;SDS011;6735;51.456;12.626;2022-11-04T15:04:58;5.13;;;4.60;;
13331;SDS011;6735;51.456;12.626;2022-11-04T15:07:30;5.43;;;4.97;;
13331;SDS011;6735;51.456;12.626;2022-11-04T15:10:17;5.53;;;5.03;;
13331;SDS011;6735;51.456;12.626;2022-11-04T15:12:57;6.90;;;5.10;;
13331;SDS011;6735;51.456;12.626;2022-11-04T15:15:26;7.80;;;6.07;;
13331;SDS011;6735;51.456;12.626;2022-11-04T15:17:52;12.23;;;6.70;;
13331;SDS011;6735;51.456;12.626;2022-11-04T15:20:24;8.50;;;6.33;;
13331;SDS011;6735;51.456;12.626;2022-11-04T15:22:50;10.33;;;6.83;;
13331;SDS011;6735;51.456;12.626;2022-11-04T15:25:17;8.63;;;7.00;;
13331;SDS011;6735;51.456;12.626;2022-11-04T15:27:43;8.27;;;7.47;;
13331;SDS011;6735;51.456;12.626;2022-11-04T15:30:19;8.80;;;7.50;;
13331;SDS011;6735;51.456;12.626;2022-11-04T15:32:54;7.23;;;6.57;;
13331;SDS011;6735;51.456;12.626;2022-11-04T15:35:21;8.97;;;7.10;;
13331;SDS011;6735;51.456;12.626;2022-11-04T15:37:48;8.77;;;7.97;;
13331;SDS011;6735;51.456;12.626;2022-11-04T15:40:16;9.20;;;8.17;;
13331;SDS011;6735;51.456;12.626;2022-11-04T15:42:42;10.47;;;8.90;;
13331;SDS011;6735;51.456;12.626;2022-11-04T15:47:47;10.97;;;9.80;;
13331;SDS011;6735;51.456;12.626;2022-11-04T15:50:23;13.53;;;11.10;;
13331;SDS011;6735;51.456;12.626;2022-11-04T15:52:53;17.77;;;11.80;;
13331;SDS011;6735;51.456;12.626;2022-11-04T15:55:24;19.67;;;13.00;;
13331;SDS011;6735;51.456;12.626;2022-11-04T15:57:51;18.13;;;12.40;;
13331;SDS011;6735;51.456;12.626;2022-11-04T16:00:20;21.20;;;12.77;;
13331;SDS011;6735;51.456;12.626;2022-11-04T16:02:56;19.13;;;12.13;;
13331;SDS011;6735;51.456;12.626;2022-11-04T16:07:55;12.37;;;10.70;;
13331;SDS011;6735;51.456;12.626;2022-11-04T16:10:38;12.60;;;10.53;;
13331;SDS011;6735;51.456;12.626;2022-11-04T16:15:39;10.97;;;9.87;;
13331;SDS011;6735;51.456;12.626;2022-11-04T16:18:24;11.40;;;10.30;;
13331;SDS011;6735;51.456;12.626;2022-11-04T16:21:05;10.67;;;9.37;;
13331;SDS011;6735;51.456;12.626;2022-11-04T16:23:45;11.70;;;9.93;;
13331;SDS011;6735;51.456;12.626;2022-11-04T16:26:13;10.33;;;9.33;;
13331;SDS011;6735;51.456;12.626;2022-11-04T16:28:39;12.03;;;10.80;;
13331;SDS011;6735;51.456;12.626;2022-11-04T16:31:22;14.90;;;13.40;;
13331;SDS011;6735;51.456;12.626;2022-11-04T16:33:50;18.77;;;14.63;;
13331;SDS011;6735;51.456;12.626;2022-11-04T16:36:15;15.47;;;13.97;;
13331;SDS011;6735;51.456;12.626;2022-11-04T16:39:05;16.20;;;14.50;;
13331;SDS011;6735;51.456;12.626;2022-11-04T16:41:35;15.63;;;14.07;;
13331;SDS011;6735;51.456;12.626;2022-11-04T16:44:03;17.27;;;15.47;;